createdAt,value
2018-09-13T00:00:15.313Z,8.50
2018-09-13T00:02:43.638Z,8.10
2018-09-13T00:05:12.228Z,8.33
2018-09-13T00:07:40.635Z,9.23
2018-09-13T00:10:09.173Z,8.67
2018-09-13T00:12:37.487Z,7.37
2018-09-13T00:15:06.619Z,8.07
2018-09-13T00:17:35.429Z,7.87
2018-09-13T00:20:03.708Z,8.47
2018-09-13T00:22:32.012Z,8.57
2018-09-13T00:25:00.376Z,7.50
2018-09-13T00:27:28.636Z,7.80
2018-09-13T00:29:57.159Z,8.83
2018-09-13T00:32:25.776Z,8.20
2018-09-13T00:34:54.063Z,9.33
2018-09-13T00:37:22.678Z,8.50
2018-09-13T00:39:50.967Z,8.60
2018-09-13T00:42:19.240Z,9.03
2018-09-13T00:44:47.520Z,8.60
2018-09-13T00:47:16.051Z,8.57
2018-09-13T00:49:44.663Z,7.80
2018-09-13T00:52:12.935Z,8.40
2018-09-13T00:54:41.280Z,9.33
2018-09-13T00:57:09.777Z,8.40
2018-09-13T00:59:38.063Z,8.17
2018-09-13T01:02:06.832Z,8.77
2018-09-13T01:04:35.107Z,8.63
2018-09-13T01:07:03.963Z,8.23
2018-09-13T01:09:32.327Z,7.77
2018-09-13T01:12:00.931Z,8.87
2018-09-13T01:14:29.225Z,8.10
2018-09-13T01:16:57.806Z,9.00
2018-09-13T01:19:26.460Z,9.10
2018-09-13T01:21:55.061Z,9.28
2018-09-13T01:24:23.939Z,8.33
2018-09-13T01:26:52.487Z,9.33
2018-09-13T01:29:20.782Z,8.23
2018-09-13T01:31:49.076Z,9.23
2018-09-13T01:34:17.366Z,8.67
2018-09-13T01:36:45.884Z,8.17
2018-09-13T01:39:14.473Z,8.78
2018-09-13T01:41:43.011Z,9.40
2018-09-13T01:44:11.301Z,9.70
2018-09-13T01:46:39.899Z,9.03
2018-09-13T01:49:08.308Z,9.17
2018-09-13T01:51:36.648Z,8.93
2018-09-13T01:54:05.483Z,7.87
2018-09-13T01:56:34.349Z,8.28
2018-09-13T01:59:02.627Z,8.27
2018-09-13T02:01:31.021Z,8.07
2018-09-13T02:03:59.559Z,8.63
2018-09-13T02:06:27.859Z,9.00
2018-09-13T02:08:56.404Z,8.48
2018-09-13T02:11:24.972Z,8.58
2018-09-13T02:13:53.399Z,9.40
2018-09-13T02:16:22.663Z,10.00
2018-09-13T02:18:51.655Z,9.00
2018-09-13T02:21:19.927Z,9.17
2018-09-13T02:23:48.227Z,9.60
2018-09-13T02:26:16.779Z,10.15
2018-09-13T02:28:45.340Z,9.50
2018-09-13T02:31:13.727Z,9.47
2018-09-13T02:33:41.990Z,9.60
2018-09-13T02:36:10.489Z,9.93
2018-09-13T02:38:38.777Z,9.70
2018-09-13T02:41:07.079Z,10.57
2018-09-13T02:43:35.366Z,10.30
2018-09-13T02:46:03.932Z,10.78
2018-09-13T02:48:32.242Z,9.43
2018-09-13T02:51:00.525Z,10.73
2018-09-13T02:53:29.165Z,9.50
2018-09-13T02:55:57.435Z,11.07
2018-09-13T02:58:26.007Z,9.30
2018-09-13T03:00:54.312Z,9.90
2018-09-13T03:03:22.878Z,9.33
2018-09-13T03:05:51.497Z,8.87
2018-09-13T03:08:20.035Z,9.17
2018-09-13T03:10:48.584Z,7.80
2018-09-13T03:13:17.112Z,7.75
2018-09-13T03:15:45.819Z,8.33
2018-09-13T03:18:14.350Z,8.27
2018-09-13T03:20:42.626Z,8.23
2018-09-13T03:23:11.027Z,7.90
2018-09-13T03:25:39.565Z,7.10
2018-09-13T03:28:08.222Z,8.47
2018-09-13T03:30:36.580Z,7.87
2018-09-13T03:33:04.969Z,8.07
2018-09-13T03:35:33.499Z,8.10
2018-09-13T03:38:01.794Z,7.60
2018-09-13T03:40:30.077Z,7.83
2018-09-13T03:42:58.647Z,8.00
2018-09-13T03:45:26.959Z,8.40
2018-09-13T03:47:55.500Z,7.72
2018-09-13T03:50:23.776Z,7.57
2018-09-13T03:52:52.388Z,7.93
2018-09-13T03:55:20.891Z,7.00
2018-09-13T03:57:49.394Z,8.50
2018-09-13T04:00:18.320Z,8.00
2018-09-13T04:02:46.591Z,7.67
2018-09-13T04:05:15.104Z,7.53
2018-09-13T04:07:43.644Z,8.00
2018-09-13T04:10:12.142Z,8.77
2018-09-13T04:12:40.421Z,8.10
2018-09-13T04:15:08.739Z,7.90
2018-09-13T04:17:37.324Z,7.73
2018-09-13T04:20:05.952Z,8.17
2018-09-13T04:22:34.323Z,8.47
2018-09-13T04:25:03.042Z,8.80
2018-09-13T04:27:31.820Z,8.03
2018-09-13T04:30:00.286Z,7.43
2018-09-13T04:32:28.780Z,7.37
2018-09-13T04:34:57.195Z,8.30
2018-09-13T04:37:25.547Z,8.10
2018-09-13T04:39:53.803Z,7.07
2018-09-13T04:42:22.455Z,7.40
2018-09-13T04:44:51.594Z,8.00
2018-09-13T04:47:20.058Z,6.80
2018-09-13T04:49:48.602Z,8.15
2018-09-13T04:52:17.091Z,8.03
2018-09-13T04:54:45.681Z,6.77
2018-09-13T04:57:14.412Z,6.90
2018-09-13T04:59:42.686Z,8.50
2018-09-13T05:02:13.835Z,7.50
2018-09-13T05:04:42.215Z,7.20
2018-09-13T05:07:10.505Z,7.37
2018-09-13T05:09:38.791Z,7.70
2018-09-13T05:12:07.692Z,6.53
2018-09-13T05:14:36.276Z,7.67
2018-09-13T05:17:04.558Z,7.27
2018-09-13T05:19:33.120Z,7.20
2018-09-13T05:22:01.447Z,7.57
2018-09-13T05:24:29.875Z,7.43
2018-09-13T05:26:58.435Z,7.80
2018-09-13T05:29:26.885Z,7.40
2018-09-13T05:31:55.424Z,7.57
2018-09-13T05:34:23.712Z,7.03
2018-09-13T05:36:52.037Z,7.20
2018-09-13T05:39:20.336Z,6.80
2018-09-13T05:41:49.010Z,7.40
2018-09-13T05:44:17.397Z,7.03
2018-09-13T05:46:45.707Z,6.80
2018-09-13T05:49:14.089Z,7.53
2018-09-13T05:51:42.736Z,7.20
2018-09-13T05:54:11.361Z,7.40
2018-09-13T05:56:39.720Z,6.50
2018-09-13T05:59:08.035Z,7.43
2018-09-13T06:01:36.487Z,6.40
2018-09-13T06:04:05.478Z,6.78
2018-09-13T06:06:34.098Z,7.57
2018-09-13T06:09:02.716Z,6.53
2018-09-13T06:11:31.021Z,6.37
2018-09-13T06:13:59.583Z,7.37
2018-09-13T06:16:28.154Z,6.12
2018-09-13T06:18:56.505Z,5.70
2018-09-13T06:21:24.795Z,6.40
2018-09-13T06:23:53.269Z,6.33
2018-09-13T06:26:21.595Z,6.40
2018-09-13T06:28:50.246Z,5.62
2018-09-13T06:31:18.781Z,6.00
2018-09-13T06:33:47.248Z,6.00
2018-09-13T06:36:16.039Z,6.13
2018-09-13T06:38:44.744Z,5.92
2018-09-13T06:41:13.389Z,5.40
2018-09-13T06:43:41.684Z,5.00
2018-09-13T06:46:10.227Z,4.53
2018-09-13T06:48:38.595Z,4.70
2018-09-13T06:51:07.177Z,4.13
2018-09-13T06:53:35.726Z,5.25
2018-09-13T06:56:04.337Z,4.90
2018-09-13T06:58:32.971Z,4.97
2018-09-13T07:01:01.542Z,4.83
2018-09-13T07:03:30.509Z,5.30
2018-09-13T07:05:58.924Z,4.63
2018-09-13T07:08:27.285Z,4.57
2018-09-13T07:10:55.788Z,5.17
2018-09-13T07:13:24.664Z,4.90
2018-09-13T07:15:53.139Z,5.47
2018-09-13T07:18:22.156Z,4.58
2018-09-13T07:20:50.453Z,5.13
2018-09-13T07:23:18.719Z,4.50
2018-09-13T07:25:47.064Z,4.40
2018-09-13T07:28:15.616Z,4.97
2018-09-13T07:30:44.066Z,5.17
2018-09-13T07:33:12.929Z,5.47
2018-09-13T07:35:41.415Z,5.20
2018-09-13T07:38:09.987Z,4.85
2018-09-13T07:40:38.531Z,5.22
2018-09-13T07:43:07.142Z,5.03
2018-09-13T07:45:35.572Z,5.87
2018-09-13T07:48:04.488Z,4.57
2018-09-13T07:50:33.313Z,5.20
2018-09-13T07:53:01.571Z,5.60
2018-09-13T07:55:30.295Z,5.80
2018-09-13T07:57:59.791Z,5.70
2018-09-13T08:00:28.928Z,5.33
2018-09-13T08:02:57.240Z,4.97
2018-09-13T08:05:25.772Z,5.72
2018-09-13T08:07:54.300Z,5.60
2018-09-13T08:10:22.626Z,6.03
2018-09-13T08:12:51.155Z,5.95
2018-09-13T08:15:19.431Z,5.77
2018-09-13T08:17:47.971Z,5.35
2018-09-13T08:20:16.344Z,5.70
2018-09-13T08:22:44.614Z,5.37
2018-09-13T08:25:13.182Z,5.80
2018-09-13T08:27:41.654Z,6.20
2018-09-13T08:30:10.269Z,5.33
2018-09-13T08:32:38.743Z,5.10
2018-09-13T08:35:07.091Z,5.87
2018-09-13T08:37:35.977Z,4.80
2018-09-13T08:40:04.418Z,4.67
2018-09-13T08:42:33.192Z,4.37
2018-09-13T08:45:01.603Z,5.13
2018-09-13T08:47:30.154Z,4.60
2018-09-13T08:49:58.633Z,5.20
2018-09-13T08:52:29.990Z,4.90
2018-09-13T08:54:58.567Z,4.53
2018-09-13T08:57:27.172Z,4.80
2018-09-13T08:59:55.754Z,4.93
2018-09-13T09:02:24.042Z,4.83
2018-09-13T09:04:52.571Z,5.25
2018-09-13T09:07:20.907Z,4.87
2018-09-13T09:09:49.356Z,5.00
2018-09-13T09:12:17.764Z,4.97
2018-09-13T09:14:46.076Z,4.60
2018-09-13T09:17:14.344Z,4.83
2018-09-13T09:19:42.751Z,4.67
2018-09-13T09:22:11.425Z,4.73
2018-09-13T09:24:39.899Z,4.97
2018-09-13T09:27:08.511Z,4.97
2018-09-13T09:29:36.824Z,4.80
2018-09-13T09:32:05.656Z,4.33
2018-09-13T09:34:33.987Z,4.70
2018-09-13T09:37:02.564Z,4.97
2018-09-13T09:39:30.929Z,4.83
2018-09-13T09:41:59.199Z,5.17
2018-09-13T09:44:27.580Z,5.27
2018-09-13T09:46:55.877Z,4.07
2018-09-13T09:49:24.162Z,4.60
2018-09-13T09:51:52.490Z,3.33
2018-09-13T09:54:21.256Z,4.03
2018-09-13T09:56:49.624Z,4.43
2018-09-13T09:59:18.259Z,4.10
2018-09-13T10:01:51.963Z,4.07
2018-09-13T10:04:20.344Z,3.73
2018-09-13T10:06:49.028Z,4.03
2018-09-13T10:09:17.312Z,4.10
2018-09-13T10:11:45.866Z,3.63
2018-09-13T10:14:14.379Z,3.83
2018-09-13T10:16:48.220Z,4.60
2018-09-13T10:19:21.973Z,4.10
2018-09-13T10:21:55.975Z,4.03
2018-09-13T10:24:29.653Z,4.57
2018-09-13T10:27:03.612Z,3.67
2018-09-13T10:29:37.637Z,4.13
2018-09-13T10:32:11.840Z,3.77
2018-09-13T10:34:45.464Z,3.60
2018-09-13T10:37:19.504Z,4.57
2018-09-13T10:39:53.202Z,4.12
2018-09-13T10:42:26.757Z,4.43
2018-09-13T10:45:00.795Z,3.63
2018-09-13T10:47:34.591Z,4.00
2018-09-13T10:50:08.767Z,4.90
2018-09-13T10:52:40.390Z,4.03
2018-09-13T10:55:09.108Z,4.90
2018-09-13T10:57:42.188Z,4.53
2018-09-13T11:00:11.677Z,4.73
2018-09-13T11:02:40.464Z,4.07
2018-09-13T11:05:09.093Z,4.97
2018-09-13T11:07:37.574Z,4.73
2018-09-13T11:10:06.214Z,4.30
2018-09-13T11:12:40.138Z,4.47
2018-09-13T11:15:42.078Z,4.60
2018-09-13T11:18:10.687Z,4.50
2018-09-13T11:20:39.099Z,4.43
2018-09-13T11:23:07.397Z,4.73
2018-09-13T11:25:35.911Z,4.90
2018-09-13T11:28:04.600Z,4.90
2018-09-13T11:30:33.246Z,4.80
2018-09-13T11:33:01.700Z,4.07
2018-09-13T11:35:29.992Z,4.40
2018-09-13T11:37:58.264Z,4.67
2018-09-13T11:40:26.868Z,4.77
2018-09-13T11:42:55.524Z,5.03
2018-09-13T11:45:23.899Z,4.80
2018-09-13T11:47:52.173Z,5.20
2018-09-13T11:50:21.384Z,5.27
2018-09-13T11:52:49.928Z,4.40
2018-09-13T11:55:18.805Z,4.53
2018-09-13T11:57:47.190Z,4.73
2018-09-13T12:00:15.632Z,4.80
2018-09-13T12:02:44.300Z,5.20
2018-09-13T12:05:12.593Z,4.97
2018-09-13T12:07:40.955Z,4.80
2018-09-13T12:10:09.901Z,4.92
2018-09-13T12:12:38.200Z,4.20
2018-09-13T12:15:08.679Z,4.22
2018-09-13T12:17:37.993Z,4.57
2018-09-13T12:20:07.068Z,3.65
2018-09-13T12:22:36.082Z,4.87
2018-09-13T12:25:05.237Z,4.83
2018-09-13T12:27:34.328Z,4.27
2018-09-13T12:30:04.147Z,4.47
2018-09-13T12:32:34.472Z,4.63
2018-09-13T12:35:05.902Z,4.22
2018-09-13T12:37:34.517Z,4.63
2018-09-13T12:40:02.924Z,4.77
2018-09-13T12:42:31.541Z,4.83
2018-09-13T12:45:01.227Z,5.37
2018-09-13T12:47:29.514Z,3.70
2018-09-13T12:49:58.186Z,4.93
2018-09-13T12:52:26.954Z,5.72
2018-09-13T12:54:55.800Z,4.90
2018-09-13T12:57:26.373Z,4.80
2018-09-13T12:59:55.392Z,4.70
2018-09-13T13:02:23.896Z,4.20
2018-09-13T13:04:52.752Z,3.72
2018-09-13T13:07:21.801Z,4.75
2018-09-13T13:09:50.325Z,4.10
2018-09-13T13:12:19.129Z,4.50
2018-09-13T13:14:47.631Z,4.87
2018-09-13T13:17:16.224Z,4.37
2018-09-13T13:19:46.652Z,4.80
2018-09-13T13:22:18.913Z,4.60
2018-09-13T13:24:53.585Z,5.10
2018-09-13T13:27:21.917Z,4.80
2018-09-13T13:29:58.150Z,4.07
2018-09-13T13:32:30.519Z,4.57
2018-09-13T13:35:01.783Z,4.30
2018-09-13T13:37:30.560Z,4.03
2018-09-13T13:39:59.289Z,5.00
2018-09-13T13:42:27.566Z,4.27
2018-09-13T13:45:01.732Z,4.17
2018-09-13T13:47:30.612Z,3.70
2018-09-13T13:49:59.754Z,4.00
2018-09-13T13:52:28.716Z,4.57
2018-09-13T13:54:59.024Z,4.53
2018-09-13T13:57:27.792Z,3.53
2018-09-13T13:59:56.310Z,4.03
2018-09-13T14:02:25.093Z,4.20
2018-09-13T14:04:53.750Z,3.90
2018-09-13T14:07:22.718Z,3.73
2018-09-13T14:09:51.029Z,3.77
2018-09-13T14:12:19.775Z,3.50
2018-09-13T14:14:48.412Z,3.87
2018-09-13T14:17:17.337Z,3.35
2018-09-13T14:19:45.784Z,3.73
2018-09-13T14:22:14.339Z,3.60
2018-09-13T14:24:43.212Z,3.33
2018-09-13T14:27:11.539Z,3.57
2018-09-13T14:29:40.340Z,3.40
2018-09-13T14:32:08.714Z,3.03
2018-09-13T14:34:37.008Z,3.40
2018-09-13T14:37:05.769Z,3.43
2018-09-13T14:39:34.208Z,3.37
2018-09-13T14:42:02.477Z,3.20
2018-09-13T14:44:31.102Z,4.10
2018-09-13T14:46:59.612Z,3.93
2018-09-13T14:49:28.039Z,3.70
2018-09-13T14:51:56.544Z,3.60
2018-09-13T14:54:33.903Z,3.90
2018-09-13T14:57:02.550Z,3.43
2018-09-13T14:59:30.872Z,3.80
2018-09-13T15:01:59.133Z,3.77
2018-09-13T15:04:29.061Z,3.60
2018-09-13T15:06:57.877Z,3.20
2018-09-13T15:09:26.305Z,3.83
2018-09-13T15:11:55.294Z,3.70
2018-09-13T15:14:23.730Z,3.70
2018-09-13T15:16:52.492Z,3.60
2018-09-13T15:19:23.900Z,4.22
2018-09-13T15:21:53.215Z,4.20
2018-09-13T15:24:21.583Z,4.10
2018-09-13T15:26:58.338Z,4.37
2018-09-13T15:29:26.909Z,4.20
2018-09-13T15:31:55.759Z,4.30
2018-09-13T15:34:27.808Z,3.90
2018-09-13T15:36:56.479Z,3.77
2018-09-13T15:39:25.457Z,4.03
2018-09-13T15:41:53.883Z,3.83
2018-09-13T15:44:22.240Z,4.07
2018-09-13T15:46:52.222Z,3.80
2018-09-13T15:49:21.122Z,3.77
2018-09-13T15:51:49.830Z,3.90
2018-09-13T15:54:19.263Z,4.50
2018-09-13T15:56:47.805Z,4.43
2018-09-13T15:59:17.302Z,4.08
2018-09-13T16:01:45.650Z,4.20
2018-09-13T16:04:14.126Z,5.00
2018-09-13T16:06:42.694Z,4.40
2018-09-13T16:09:11.018Z,4.80
2018-09-13T16:11:39.662Z,5.70
2018-09-13T16:14:08.863Z,5.70
2018-09-13T16:16:37.183Z,4.50
2018-09-13T16:19:06.079Z,4.95
2018-09-13T16:21:34.384Z,4.27
2018-09-13T16:24:02.836Z,4.57
2018-09-13T16:26:31.265Z,4.17
2018-09-13T16:29:00.119Z,4.70
2018-09-13T16:31:28.989Z,4.57
2018-09-13T16:33:57.431Z,4.50
2018-09-13T16:36:28.030Z,4.70
2018-09-13T16:39:02.295Z,4.20
2018-09-13T16:41:41.253Z,4.30
2018-09-13T16:44:13.981Z,4.90
2018-09-13T16:46:48.147Z,4.73
2018-09-13T16:49:19.261Z,4.60
2018-09-13T16:51:48.010Z,4.70
2018-09-13T16:54:16.339Z,4.60
2018-09-13T16:56:47.447Z,4.87
2018-09-13T16:59:15.883Z,5.30
2018-09-13T17:01:45.269Z,5.07
2018-09-13T17:04:14.637Z,4.90
2018-09-13T17:06:43.268Z,4.70
2018-09-13T17:09:11.724Z,4.90
2018-09-13T17:11:40.180Z,12.00
2018-09-13T17:14:08.672Z,11.53
2018-09-13T17:16:37.216Z,4.93
2018-09-13T17:19:05.703Z,5.20
2018-09-13T17:21:34.405Z,5.73
2018-09-13T17:24:03.738Z,5.23
2018-09-13T17:26:32.415Z,5.45
2018-09-13T17:29:01.352Z,4.97
2018-09-13T17:31:29.766Z,5.47
2018-09-13T17:33:58.452Z,5.60
2018-09-13T17:36:27.346Z,5.40
2018-09-13T17:38:55.626Z,5.30
2018-09-13T17:41:24.253Z,6.23
2018-09-13T17:43:52.535Z,5.20
2018-09-13T17:46:20.996Z,5.70
2018-09-13T17:48:49.348Z,5.53
2018-09-13T17:51:17.894Z,5.27
2018-09-13T17:53:46.341Z,5.67
2018-09-13T17:56:14.923Z,6.73
2018-09-13T17:58:43.316Z,6.60
2018-09-13T18:01:11.644Z,6.67
2018-09-13T18:03:41.395Z,5.72
2018-09-13T18:06:09.820Z,7.07
2018-09-13T18:08:38.285Z,6.77
2018-09-13T18:11:06.618Z,6.00
2018-09-13T18:13:35.181Z,6.37
2018-09-13T18:16:03.809Z,6.85
2018-09-13T18:18:32.096Z,6.17
2018-09-13T18:21:01.792Z,6.57
2018-09-13T18:23:31.112Z,6.92
2018-09-13T18:26:00.158Z,6.90
2018-09-13T18:28:28.735Z,6.58
2018-09-13T18:30:57.640Z,6.13
2018-09-13T18:33:27.049Z,6.83
2018-09-13T18:35:55.796Z,7.07
2018-09-13T18:38:24.353Z,6.40
2018-09-13T18:40:53.542Z,7.40
2018-09-13T18:43:21.961Z,6.90
2018-09-13T18:45:50.316Z,6.57
2018-09-13T18:48:18.693Z,6.60
2018-09-13T18:50:47.026Z,6.90
2018-09-13T18:53:15.597Z,7.55
2018-09-13T18:55:44.145Z,6.87
2018-09-13T18:58:13.201Z,5.90
2018-09-13T19:00:41.578Z,6.37
2018-09-13T19:03:10.252Z,6.50
2018-09-13T19:05:38.877Z,6.60
2018-09-13T19:08:08.956Z,6.60
2018-09-13T19:10:37.696Z,6.83
2018-09-13T19:13:06.557Z,6.03
2018-09-13T19:15:34.849Z,6.03
2018-09-13T19:18:03.434Z,7.43
2018-09-13T19:20:31.848Z,7.43
2018-09-13T19:23:02.248Z,6.77
2018-09-13T19:25:30.851Z,6.47
2018-09-13T19:27:59.635Z,6.55
2018-09-13T19:30:27.948Z,6.50
2018-09-13T19:32:57.044Z,7.42
2018-09-13T19:35:25.524Z,6.50
2018-09-13T19:37:54.168Z,7.20
2018-09-13T19:40:23.781Z,7.65
2018-09-13T19:42:52.327Z,7.20
2018-09-13T19:45:20.988Z,6.90
2018-09-13T19:47:49.637Z,7.23
2018-09-13T19:50:18.419Z,7.57
2018-09-13T19:52:47.096Z,7.10
2018-09-13T19:55:15.435Z,8.27
2018-09-13T19:57:44.001Z,8.88
2018-09-13T20:00:12.395Z,7.80
2018-09-13T20:02:40.721Z,8.40
2018-09-13T20:05:09.292Z,9.97
2018-09-13T20:07:37.638Z,10.57
2018-09-13T20:10:06.574Z,9.27
2018-09-13T20:12:34.951Z,9.13
2018-09-13T20:15:03.238Z,9.70
2018-09-13T20:17:31.841Z,9.48
2018-09-13T20:20:00.319Z,10.00
2018-09-13T20:22:28.599Z,9.27
2018-09-13T20:24:57.040Z,9.13
2018-09-13T20:27:25.610Z,8.05
2018-09-13T20:29:54.206Z,8.15
2018-09-13T20:32:23.112Z,8.23
2018-09-13T20:34:51.515Z,7.60
2018-09-13T20:37:20.065Z,8.70
2018-09-13T20:39:48.451Z,8.03
2018-09-13T20:42:17.384Z,7.83
2018-09-13T20:44:45.914Z,8.23
2018-09-13T20:47:14.202Z,7.70
2018-09-13T20:49:42.664Z,8.23
2018-09-13T20:52:11.210Z,7.28
2018-09-13T20:54:39.925Z,7.60
2018-09-13T20:57:08.757Z,8.07
2018-09-13T20:59:37.203Z,6.73
2018-09-13T21:02:05.520Z,7.30
2018-09-13T21:04:34.068Z,7.90
2018-09-13T21:07:02.348Z,7.63
2018-09-13T21:09:30.653Z,8.37
2018-09-13T21:11:59.049Z,8.10
2018-09-13T21:14:27.613Z,6.70
2018-09-13T21:16:56.377Z,5.97
2018-09-13T21:19:24.673Z,6.67
2018-09-13T21:21:52.944Z,5.70
2018-09-13T21:24:21.255Z,5.80
2018-09-13T21:26:49.820Z,5.03
2018-09-13T21:29:18.104Z,5.57
2018-09-13T21:31:46.372Z,5.97
2018-09-13T21:34:14.983Z,5.50
2018-09-13T21:36:43.535Z,5.37
2018-09-13T21:39:12.429Z,5.58
2018-09-13T21:41:40.718Z,5.60
2018-09-13T21:44:09.072Z,5.50
2018-09-13T21:46:37.502Z,5.33
2018-09-13T21:49:06.203Z,5.57
2018-09-13T21:51:34.578Z,5.70
2018-09-13T21:54:03.052Z,5.23
2018-09-13T21:56:31.655Z,5.10
2018-09-13T21:59:00.334Z,5.37
2018-09-13T22:01:29.056Z,4.70
2018-09-13T22:03:57.373Z,4.77
2018-09-13T22:06:25.770Z,4.60
2018-09-13T22:08:54.328Z,4.85
2018-09-13T22:11:23.267Z,5.57
2018-09-13T22:13:51.723Z,4.73
2018-09-13T22:16:20.243Z,4.30
2018-09-13T22:18:48.785Z,4.35
2018-09-13T22:21:17.182Z,5.27
2018-09-13T22:23:45.656Z,4.30
2018-09-13T22:26:13.947Z,5.27
2018-09-13T22:28:42.372Z,4.50
2018-09-13T22:31:10.683Z,4.90
2018-09-13T22:33:39.060Z,5.03
2018-09-13T22:36:07.640Z,4.57
2018-09-13T22:38:36.204Z,4.78
2018-09-13T22:41:04.917Z,4.80
2018-09-13T22:43:38.940Z,4.20
2018-09-13T22:46:07.472Z,4.33
2018-09-13T22:48:35.791Z,3.63
2018-09-13T22:51:04.552Z,4.57
2018-09-13T22:53:33.190Z,3.70
2018-09-13T22:56:02.377Z,4.00
2018-09-13T22:58:30.715Z,3.67
2018-09-13T23:00:58.978Z,3.40
2018-09-13T23:03:27.868Z,3.52
2018-09-13T23:05:56.348Z,3.20
2018-09-13T23:08:24.886Z,3.65
2018-09-13T23:10:53.438Z,4.17
2018-09-13T23:13:21.937Z,3.20
2018-09-13T23:15:50.250Z,3.87
2018-09-13T23:18:18.834Z,3.53
2018-09-13T23:20:47.336Z,3.67
2018-09-13T23:23:15.642Z,3.40
2018-09-13T23:25:44.256Z,3.90
2018-09-13T23:28:12.552Z,3.80
2018-09-13T23:30:40.834Z,3.63
2018-09-13T23:33:09.523Z,3.77
2018-09-13T23:35:37.874Z,4.40
2018-09-13T23:38:06.919Z,3.80
2018-09-13T23:40:35.244Z,3.93
2018-09-13T23:43:03.680Z,3.80
2018-09-13T23:45:31.973Z,4.27
2018-09-13T23:48:00.666Z,3.33
2018-09-13T23:50:29.009Z,4.40
2018-09-13T23:52:57.323Z,4.60
2018-09-13T23:55:25.794Z,4.40
2018-09-13T23:57:54.084Z,4.07
